Goring, United Kingdom
Current Conditions -  °F | °C
As of 8:50 AM on Saturday 20 Dec 2014 (Local Time) from EGUB Reporting Station
Broken Clouds Broken Clouds  
Wind Chill: 39°   Ceiling: 4300
Heat Index: 45°   Visibility: 6mi
Dew Point: 37°   Wind: 10mph
Humidity: 76%   Direction: 230°SW
Pressure: 30.27"   Gusts: NA
Location:  51.52°N, 1.13°W
Report Text: EGUB 200850Z AUTO 23009KT 9999 // BKN043/// 07/03 Q1025
Loading
Personal Weather Stations






























Interactive Weather Map New forecast layout! Learn more

10-Day Weather Forecast

Advertisements
Track Severe Weather on mobile